Time;durP1;ratioP1;P1;durP2;ratioP2;P2;SDS_P1;SDS_P2;PMS_P1;PMS_P2;Temp;Humidity;BMP_temperature;BMP_pressure;BME280_temperature;BME280_humidity;BME280_pressure;Samples;Min_cycle;Max_cycle;Signal;HPM_P1;HPM_P2
2023/11/17 00:02:26;;;;;;;1.90;1.60;;;8.10;98.00;;;;;;5013180;28;20452;-67
2023/11/17 00:04:53;;;;;;;2.60;1.97;;;8.10;98.00;;;;;;5012979;28;20457;-69
2023/11/17 00:07:22;;;;;;;3.30;1.77;;;8.20;98.00;;;;;;5012758;28;20463;-67
2023/11/17 00:09:49;;;;;;;3.77;2.00;;;8.20;98.00;;;;;;5012753;28;20447;-69
2023/11/17 00:12:16;;;;;;;4.60;2.30;;;8.10;98.00;;;;;;5011590;28;20457;-67
2023/11/17 00:14:43;;;;;;;2.60;1.67;;;8.10;98.00;;;;;;5011710;28;20509;-67
2023/11/17 00:17:12;;;;;;;1.80;1.70;;;8.20;98.00;;;;;;5012703;28;20498;-67
2023/11/17 00:19:39;;;;;;;3.13;1.70;;;8.10;98.00;;;;;;5012716;28;21096;-68
2023/11/17 00:22:06;;;;;;;2.43;1.80;;;8.00;98.00;;;;;;5012794;28;20960;-68
2023/11/17 00:24:35;;;;;;;3.10;1.87;;;8.00;98.00;;;;;;5012950;28;20469;-67
2023/11/17 00:27:03;;;;;;;1.87;1.57;;;8.00;98.00;;;;;;5012629;28;20463;-68
2023/11/17 00:29:30;;;;;;;2.03;1.50;;;7.90;98.00;;;;;;5012634;28;20460;-68
2023/11/17 00:31:57;;;;;;;2.10;1.70;;;7.90;98.00;;;;;;5012597;28;20453;-67
2023/11/17 00:34:24;;;;;;;2.00;1.50;;;8.00;98.00;;;;;;5012645;28;20492;-67
2023/11/17 00:36:52;;;;;;;2.60;1.80;;;7.90;98.00;;;;;;5012464;28;20492;-68
2023/11/17 00:39:21;;;;;;;2.60;1.60;;;8.00;98.00;;;;;;5012507;28;20473;-68
2023/11/17 00:41:49;;;;;;;3.50;2.10;;;8.00;98.00;;;;;;5012659;28;20443;-68
2023/11/17 00:44:17;;;;;;;2.50;1.70;;;7.90;98.00;;;;;;5012614;28;20455;-67
2023/11/17 00:46:45;;;;;;;2.20;1.60;;;8.00;98.00;;;;;;5012990;28;20453;-67
2023/11/17 00:49:12;;;;;;;2.17;1.60;;;8.10;98.00;;;;;;5012260;28;20909;-67
2023/11/17 00:51:40;;;;;;;1.70;1.47;;;8.10;98.00;;;;;;5012786;28;20466;-67
2023/11/17 00:54:07;;;;;;;2.30;1.60;;;8.10;98.00;;;;;;5012501;28;20461;-67
2023/11/17 00:56:34;;;;;;;1.73;1.43;;;8.00;98.00;;;;;;5012176;28;20511;-68
2023/11/17 00:59:03;;;;;;;2.10;1.40;;;8.00;98.00;;;;;;5014838;28;20452;-67
2023/11/17 01:01:30;;;;;;;2.10;1.33;;;7.90;98.00;;;;;;5018658;28;20464;-67
2023/11/17 01:03:57;;;;;;;2.90;1.40;;;7.90;98.00;;;;;;5017404;28;20521;-67
2023/11/17 01:06:25;;;;;;;2.97;1.80;;;7.90;98.00;;;;;;5018363;28;20472;-68
2023/11/17 01:08:52;;;;;;;2.70;1.70;;;7.90;98.00;;;;;;5018765;28;20479;-68
2023/11/17 01:11:19;;;;;;;2.20;1.63;;;7.90;98.00;;;;;;5018530;28;20449;-67
2023/11/17 01:13:46;;;;;;;1.93;1.60;;;7.80;98.00;;;;;;5018621;28;20448;-67
2023/11/17 01:16:16;;;;;;;3.60;2.00;;;7.80;98.00;;;;;;5017110;28;20455;-66
2023/11/17 01:18:43;;;;;;;2.03;1.60;;;7.70;98.00;;;;;;5018508;28;20552;-67
2023/11/17 01:21:10;;;;;;;2.10;1.60;;;7.60;98.00;;;;;;5018450;28;20447;-67
2023/11/17 01:23:40;;;;;;;6.43;1.83;;;7.70;98.00;;;;;;5017308;28;20489;-66
2023/11/17 01:26:08;;;;;;;1.90;1.60;;;7.70;98.00;;;;;;5018341;28;21010;-68
2023/11/17 01:28:35;;;;;;;2.60;1.90;;;7.60;98.00;;;;;;5018442;28;20514;-70
2023/11/17 01:31:04;;;;;;;2.60;1.70;;;7.60;98.00;;;;;;5018603;28;20453;-67
2023/11/17 01:33:32;;;;;;;2.77;1.73;;;7.60;98.00;;;;;;5017148;28;20492;-67
2023/11/17 01:36:00;;;;;;;2.37;1.77;;;7.50;98.00;;;;;;5018265;28;20450;-66
2023/11/17 01:38:27;;;;;;;2.33;1.77;;;7.40;98.00;;;;;;5018336;28;20490;-67
2023/11/17 01:40:57;;;;;;;2.20;1.70;;;7.30;98.00;;;;;;5018383;28;20456;-68
2023/11/17 01:43:25;;;;;;;3.00;1.90;;;7.30;98.00;;;;;;5018365;28;20570;-67
2023/11/17 01:45:56;;;;;;;2.53;1.87;;;7.20;98.00;;;;;;5018197;28;20498;-67
2023/11/17 01:48:24;;;;;;;2.60;1.80;;;7.30;98.00;;;;;;5018349;28;20924;-68
2023/11/17 01:50:53;;;;;;;2.93;1.97;;;7.20;98.00;;;;;;5018340;28;20866;-68
2023/11/17 01:53:20;;;;;;;2.43;1.70;;;7.30;98.00;;;;;;5018408;28;20455;-67
2023/11/17 01:55:48;;;;;;;1.60;1.40;;;7.40;98.00;;;;;;5018607;28;20467;-67
2023/11/17 01:58:16;;;;;;;2.40;1.60;;;7.40;98.00;;;;;;5018381;28;20488;-68
2023/11/17 02:00:43;;;;;;;2.27;1.50;;;7.40;98.00;;;;;;5018460;28;20463;-67
2023/11/17 02:03:12;;;;;;;2.80;1.70;;;7.30;98.00;;;;;;5018511;28;20967;-67
2023/11/17 02:05:39;;;;;;;1.57;1.50;;;7.30;98.00;;;;;;5018364;28;20460;-68
2023/11/17 02:08:22;;;;;;;1.70;1.53;;;7.30;98.00;;;;;;5018414;28;20815;-67
2023/11/17 02:11:00;;;;;;;3.20;1.73;;;7.30;98.00;;;;;;5014140;28;20546;-68
2023/11/17 02:13:32;;;;;;;3.10;1.40;;;7.30;98.00;;;;;;5015049;28;20459;-67
2023/11/17 02:16:02;;;;;;;1.53;1.47;;;7.30;98.00;;;;;;5015067;28;20456;-70
2023/11/17 02:18:34;;;;;;;5.60;1.70;;;7.40;98.00;;;;;;5015282;28;20994;-69
2023/11/17 02:21:05;;;;;;;4.70;1.50;;;7.40;98.00;;;;;;5014973;28;20450;-68
2023/11/17 02:23:36;;;;;;;2.17;1.57;;;7.40;98.00;;;;;;5015005;28;20458;-68
2023/11/17 02:26:19;;;;;;;1.97;1.50;;;7.50;98.00;;;;;;5015350;28;20451;-68
2023/11/17 02:28:58;;;;;;;3.03;1.87;;;7.50;98.00;;;;;;5014890;28;20453;-66
2023/11/17 02:31:29;;;;;;;1.87;1.60;;;7.50;98.00;;;;;;5014760;28;20468;-68
2023/11/17 02:33:58;;;;;;;2.03;1.60;;;7.50;98.00;;;;;;4997348;28;20508;-68
2023/11/17 02:36:28;;;;;;;3.20;1.77;;;7.50;98.00;;;;;;5014319;28;20855;-67
2023/11/17 02:38:57;;;;;;;1.40;1.30;;;7.60;98.00;;;;;;5013064;28;20575;-67
2023/11/17 02:41:32;;;;;;;2.57;1.80;;;7.60;98.00;;;;;;5014463;28;20947;-68
2023/11/17 02:44:02;;;;;;;1.90;1.70;;;7.60;98.00;;;;;;5014485;28;20566;-68
2023/11/17 02:46:32;;;;;;;2.13;1.60;;;7.60;98.00;;;;;;5014189;28;20553;-69
2023/11/17 02:49:01;;;;;;;2.07;1.70;;;7.50;98.00;;;;;;5014172;28;20923;-68
2023/11/17 02:51:33;;;;;;;3.30;1.40;;;7.60;98.00;;;;;;5014186;28;20494;-68
2023/11/17 02:54:08;;;;;;;2.57;1.63;;;7.50;98.00;;;;;;5014418;28;20486;-67
2023/11/17 02:56:39;;;;;;;3.03;1.90;;;7.40;98.00;;;;;;5014141;28;20462;-67
2023/11/17 02:59:07;;;;;;;2.97;1.63;;;7.30;98.00;;;;;;5014070;28;20485;-67
2023/11/17 03:01:38;;;;;;;4.20;2.20;;;7.40;98.00;;;;;;5012610;28;20453;-67
2023/11/17 03:04:13;;;;;;;2.23;1.60;;;7.50;98.00;;;;;;5014213;28;20463;-67
2023/11/17 03:06:45;;;;;;;2.13;1.70;;;7.50;98.00;;;;;;5013944;28;21042;-67
2023/11/17 03:09:14;;;;;;;3.33;2.00;;;7.60;98.00;;;;;;5013886;28;20462;-67
2023/11/17 03:11:42;;;;;;;3.00;1.90;;;7.50;98.00;;;;;;5013851;28;20556;-68
2023/11/17 03:14:09;;;;;;;3.77;2.00;;;7.40;98.00;;;;;;5013774;28;20484;-69
2023/11/17 03:16:38;;;;;;;3.40;1.80;;;7.20;98.00;;;;;;5013687;28;20454;-67
2023/11/17 03:19:10;;;;;;;2.20;1.67;;;7.30;98.00;;;;;;5012405;28;20483;-69
2023/11/17 03:21:41;;;;;;;2.47;1.90;;;7.30;98.00;;;;;;5013412;28;20451;-67
2023/11/17 03:24:14;;;;;;;3.13;1.90;;;7.40;98.00;;;;;;5012465;28;20464;-68
2023/11/17 03:26:43;;;;;;;4.00;2.37;;;7.40;98.00;;;;;;5013563;28;20462;-68
2023/11/17 03:29:14;;;;;;;3.30;2.33;;;7.30;98.00;;;;;;5013222;28;20554;-68
2023/11/17 03:31:48;;;;;;;2.50;2.13;;;7.20;98.00;;;;;;5013443;28;20451;-67
2023/11/17 03:34:16;;;;;;;6.60;2.37;;;7.20;98.00;;;;;;5013573;28;20513;-68
2023/11/17 03:36:43;;;;;;;3.93;2.50;;;7.10;98.00;;;;;;5013327;28;20452;-67
2023/11/17 03:39:12;;;;;;;4.03;2.53;;;7.10;98.00;;;;;;5013356;28;21026;-68
2023/11/17 03:41:40;;;;;;;3.20;2.27;;;7.20;98.00;;;;;;5013361;28;20452;-67
2023/11/17 03:44:09;;;;;;;3.97;2.40;;;7.20;98.00;;;;;;5013407;28;20477;-68
2023/11/17 03:46:36;;;;;;;3.80;2.10;;;7.20;98.00;;;;;;5013323;28;20535;-68
2023/11/17 03:49:06;;;;;;;3.30;2.00;;;7.30;98.00;;;;;;5013443;28;20469;-67
2023/11/17 03:51:34;;;;;;;5.17;2.70;;;7.30;98.00;;;;;;5013229;28;20453;-68
2023/11/17 03:54:01;;;;;;;3.10;2.10;;;7.20;98.00;;;;;;5013189;28;20468;-68
2023/11/17 03:56:28;;;;;;;6.07;2.27;;;7.10;98.00;;;;;;5011954;28;20790;-68
2023/11/17 03:58:55;;;;;;;2.60;2.27;;;7.30;98.00;;;;;;5012067;28;20574;-68
2023/11/17 04:01:22;;;;;;;6.20;2.40;;;7.20;98.00;;;;;;5013118;28;20962;-67
2023/11/17 04:03:49;;;;;;;3.90;2.43;;;7.20;98.00;;;;;;5013365;28;20464;-68
2023/11/17 04:06:20;;;;;;;3.97;2.50;;;7.20;98.00;;;;;;5013155;28;20453;-67
2023/11/17 04:08:47;;;;;;;3.53;2.30;;;7.20;98.00;;;;;;5013416;28;20453;-68
2023/11/17 04:11:15;;;;;;;4.23;2.37;;;7.20;98.00;;;;;;5012767;28;20460;-67
2023/11/17 04:13:42;;;;;;;3.23;2.40;;;7.10;98.00;;;;;;5013147;28;20448;-66
2023/11/17 04:16:10;;;;;;;5.80;2.57;;;7.10;98.00;;;;;;5011394;28;20493;-68
2023/11/17 04:18:38;;;;;;;6.00;2.67;;;7.00;98.00;;;;;;5012205;28;20573;-68
2023/11/17 04:21:06;;;;;;;5.20;2.60;;;7.00;98.00;;;;;;5011952;28;20510;-68
2023/11/17 04:23:37;;;;;;;4.73;2.43;;;7.00;98.00;;;;;;5011020;28;20493;-67
2023/11/17 04:26:05;;;;;;;4.17;2.63;;;7.10;98.00;;;;;;5011409;28;20458;-67
2023/11/17 04:28:32;;;;;;;7.20;3.17;;;7.00;98.00;;;;;;5011119;28;20464;-68
2023/11/17 04:31:03;;;;;;;5.90;2.50;;;7.00;98.00;;;;;;5012354;28;20465;-67
2023/11/17 04:33:31;;;;;;;5.07;2.63;;;7.10;98.00;;;;;;5011632;28;20511;-67
2023/11/17 04:36:00;;;;;;;4.00;2.50;;;7.10;98.00;;;;;;5012351;28;20458;-67
2023/11/17 04:38:30;;;;;;;5.07;2.87;;;7.00;98.00;;;;;;5012331;28;20851;-67
2023/11/17 04:40:59;;;;;;;7.20;3.10;;;7.00;98.00;;;;;;5012308;28;20452;-67
2023/11/17 04:43:26;;;;;;;9.20;2.63;;;7.00;98.00;;;;;;5012193;28;20551;-67
2023/11/17 04:45:54;;;;;;;4.90;2.70;;;7.00;98.00;;;;;;5012250;28;20454;-67
2023/11/17 04:48:22;;;;;;;6.30;3.00;;;7.00;98.00;;;;;;5012284;28;20492;-69
2023/11/17 04:50:50;;;;;;;6.60;3.00;;;7.00;98.00;;;;;;5011051;28;20464;-67
2023/11/17 04:53:17;;;;;;;4.30;2.20;;;7.20;98.00;;;;;;5012376;28;20951;-67
2023/11/17 04:55:45;;;;;;;3.87;2.47;;;7.20;98.00;;;;;;5012332;28;21014;-68
2023/11/17 04:58:14;;;;;;;3.83;2.27;;;7.20;98.00;;;;;;5012084;28;21021;-67
2023/11/17 05:00:41;;;;;;;2.60;2.07;;;7.30;98.00;;;;;;5012204;28;20832;-67
2023/11/17 05:03:10;;;;;;;4.60;2.37;;;7.30;98.00;;;;;;5011059;28;20458;-68
2023/11/17 05:05:38;;;;;;;9.63;2.40;;;7.20;98.00;;;;;;5011161;28;20459;-67
2023/11/17 05:08:06;;;;;;;4.37;2.30;;;7.20;98.00;;;;;;5011158;28;20463;-68
2023/11/17 05:10:33;;;;;;;4.13;2.20;;;7.10;98.00;;;;;;5012034;28;20457;-67
2023/11/17 05:13:00;;;;;;;2.50;1.80;;;7.10;98.00;;;;;;5012251;28;20449;-68
2023/11/17 05:15:28;;;;;;;2.33;2.00;;;7.00;98.00;;;;;;5012157;28;20492;-67
2023/11/17 05:17:56;;;;;;;2.90;1.87;;;7.00;98.00;;;;;;4994706;28;20481;-68
2023/11/17 05:20:25;;;;;;;3.10;1.80;;;7.00;98.00;;;;;;5012266;28;20816;-68
2023/11/17 05:22:54;;;;;;;2.23;1.67;;;7.10;98.00;;;;;;5011110;28;20830;-68
2023/11/17 05:25:27;;;;;;;2.53;1.77;;;7.20;98.00;;;;;;5011925;28;20954;-69
2023/11/17 05:27:54;;;;;;;3.40;1.80;;;7.00;98.00;;;;;;5012144;28;21022;-68
2023/11/17 05:30:21;;;;;;;3.30;1.93;;;7.00;98.00;;;;;;5011963;28;20462;-69
2023/11/17 05:32:50;;;;;;;3.80;2.00;;;6.90;98.00;;;;;;5011911;28;20473;-67
2023/11/17 05:35:18;;;;;;;2.77;1.80;;;6.90;98.00;;;;;;5010519;28;20462;-67
2023/11/17 05:37:46;;;;;;;2.73;1.90;;;7.00;98.00;;;;;;5012002;28;20519;-68
2023/11/17 05:40:14;;;;;;;3.60;2.10;;;7.00;98.00;;;;;;5012020;28;20488;-68
2023/11/17 05:42:42;;;;;;;4.53;2.30;;;7.00;98.00;;;;;;5012141;28;20506;-69
2023/11/17 05:45:12;;;;;;;3.20;2.07;;;7.10;98.00;;;;;;5013112;28;20541;-68
2023/11/17 05:47:39;;;;;;;3.23;2.20;;;7.10;98.00;;;;;;5016026;28;20455;-67
2023/11/17 05:50:11;;;;;;;4.83;2.20;;;6.90;98.00;;;;;;5015608;28;20447;-68
2023/11/17 05:52:39;;;;;;;5.13;2.50;;;6.80;98.00;;;;;;5015514;28;20452;-67
2023/11/17 05:55:07;;;;;;;4.07;2.30;;;6.90;98.00;;;;;;5015409;28;20886;-67
2023/11/17 05:57:34;;;;;;;4.43;2.40;;;7.00;98.00;;;;;;5015365;28;20468;-67
2023/11/17 06:00:09;;;;;;;4.03;2.20;;;7.10;98.00;;;;;;5014894;28;20460;-68
2023/11/17 06:02:36;;;;;;;3.67;2.13;;;7.00;98.00;;;;;;5015287;28;20476;-67
2023/11/17 06:05:04;;;;;;;3.87;2.20;;;7.00;98.00;;;;;;5015227;28;20446;-67
2023/11/17 06:07:33;;;;;;;3.87;2.10;;;7.10;98.00;;;;;;5014119;28;20477;-66
2023/11/17 06:10:01;;;;;;;2.70;1.93;;;7.00;98.00;;;;;;5015019;28;20456;-68
2023/11/17 06:12:30;;;;;;;3.00;1.93;;;7.10;98.00;;;;;;5015004;28;20489;-68
2023/11/17 06:14:57;;;;;;;2.50;2.00;;;7.10;98.00;;;;;;5015123;28;20456;-67
2023/11/17 06:17:25;;;;;;;3.07;2.17;;;7.10;98.00;;;;;;5015032;28;20488;-68
2023/11/17 06:19:52;;;;;;;2.67;1.87;;;7.10;98.00;;;;;;5013424;28;20581;-68
2023/11/17 06:22:19;;;;;;;4.93;2.03;;;7.10;98.00;;;;;;5014717;28;20489;-67
2023/11/17 06:24:48;;;;;;;5.10;2.37;;;7.20;98.00;;;;;;5014822;28;20455;-68
2023/11/17 06:27:15;;;;;;;3.70;2.30;;;7.30;98.00;;;;;;5014884;28;20458;-67
2023/11/17 06:29:42;;;;;;;3.50;1.90;;;7.30;98.00;;;;;;5014819;28;20466;-68
2023/11/17 06:32:09;;;;;;;3.87;2.27;;;7.20;98.00;;;;;;5014459;28;20514;-68
2023/11/17 06:34:36;;;;;;;4.10;2.37;;;7.20;98.00;;;;;;5013607;28;20459;-68
2023/11/17 06:37:05;;;;;;;3.10;2.10;;;7.10;98.00;;;;;;5014457;28;20979;-69
2023/11/17 06:39:32;;;;;;;5.00;2.40;;;7.20;98.00;;;;;;5014548;28;20553;-67
2023/11/17 06:42:00;;;;;;;3.67;2.37;;;7.30;98.00;;;;;;5014532;28;20500;-68
2023/11/17 06:44:27;;;;;;;7.13;2.20;;;7.30;98.00;;;;;;5014398;28;20455;-67
2023/11/17 06:46:55;;;;;;;5.00;2.30;;;7.30;98.00;;;;;;5014231;28;20464;-67
2023/11/17 06:49:24;;;;;;;7.00;2.40;;;7.30;98.00;;;;;;5014380;28;20962;-67
2023/11/17 06:51:52;;;;;;;4.90;2.47;;;7.30;98.00;;;;;;5014245;28;20460;-67
2023/11/17 06:54:21;;;;;;;3.90;2.30;;;7.30;98.00;;;;;;5014388;28;20453;-67
2023/11/17 06:56:49;;;;;;;3.53;2.40;;;7.20;98.00;;;;;;5012271;28;20461;-67
2023/11/17 06:59:19;;;;;;;3.37;1.87;;;7.30;98.00;;;;;;5014083;28;20490;-62
2023/11/17 07:01:49;;;;;;;6.67;2.50;;;7.30;98.00;;;;;;5014339;28;20459;-62
2023/11/17 07:04:16;;;;;;;2.73;2.10;;;7.30;98.00;;;;;;5014100;28;20461;-63
2023/11/17 07:06:44;;;;;;;5.67;2.30;;;7.30;98.00;;;;;;5014175;28;20484;-62
2023/11/17 07:09:16;;;;;;;3.27;2.17;;;7.40;98.00;;;;;;5014262;28;20868;-63
2023/11/17 07:11:45;;;;;;;3.03;2.00;;;7.40;98.00;;;;;;5014080;28;20457;-62
2023/11/17 07:14:12;;;;;;;3.70;2.03;;;7.20;98.00;;;;;;5012824;28;20554;-62
2023/11/17 07:16:42;;;;;;;8.03;2.40;;;7.20;98.00;;;;;;5014279;28;20459;-62
2023/11/17 07:19:09;;;;;;;3.53;2.20;;;7.10;98.00;;;;;;5013798;28;20566;-62
2023/11/17 07:21:37;;;;;;;3.40;2.20;;;7.10;98.00;;;;;;5013989;28;20465;-62
2023/11/17 07:24:05;;;;;;;4.20;2.50;;;7.10;98.00;;;;;;5013121;28;20477;-62
2023/11/17 07:26:33;;;;;;;3.17;2.10;;;7.00;98.00;;;;;;5011801;28;20454;-62
2023/11/17 07:29:01;;;;;;;3.07;1.97;;;7.00;98.00;;;;;;5012104;28;20459;-62
2023/11/17 07:31:29;;;;;;;3.47;2.10;;;6.90;98.00;;;;;;5013184;28;20878;-62
2023/11/17 07:33:57;;;;;;;4.20;2.40;;;6.90;98.00;;;;;;5013309;28;20468;-62
2023/11/17 07:36:24;;;;;;;5.17;2.53;;;6.90;98.00;;;;;;5012967;28;20449;-63
2023/11/17 07:38:54;;;;;;;4.10;2.53;;;6.90;98.00;;;;;;5012665;28;20901;-62
2023/11/17 07:41:21;;;;;;;3.70;2.17;;;7.00;98.00;;;;;;5012801;28;20452;-62
2023/11/17 07:43:48;;;;;;;5.63;2.40;;;7.00;98.00;;;;;;5011520;28;20817;-62
2023/11/17 07:46:15;;;;;;;3.13;2.30;;;7.00;98.00;;;;;;5011402;28;20454;-62
2023/11/17 07:48:44;;;;;;;3.60;2.37;;;7.10;98.00;;;;;;5012677;28;20482;-62
2023/11/17 07:51:13;;;;;;;5.20;2.30;;;7.10;98.00;;;;;;5012479;28;20881;-61
2023/11/17 07:53:42;;;;;;;4.63;2.50;;;7.10;98.00;;;;;;5012497;28;20883;-62
2023/11/17 07:56:09;;;;;;;5.00;2.27;;;7.30;98.00;;;;;;5012258;28;20460;-62
2023/11/17 07:58:37;;;;;;;3.83;2.47;;;7.40;98.00;;;;;;5012499;28;20486;-62
2023/11/17 08:01:06;;;;;;;3.13;2.03;;;7.40;98.00;;;;;;5011026;28;20892;-63
2023/11/17 08:03:33;;;;;;;3.77;2.47;;;7.40;98.00;;;;;;5012843;28;20451;-62
2023/11/17 08:06:02;;;;;;;3.70;2.20;;;7.50;98.00;;;;;;5012167;28;20980;-62
2023/11/17 08:08:31;;;;;;;5.63;2.30;;;7.50;98.00;;;;;;5011322;28;20481;-62
2023/11/17 08:10:59;;;;;;;3.90;2.17;;;7.60;98.00;;;;;;5012286;28;20939;-63
2023/11/17 08:13:26;;;;;;;3.97;2.40;;;7.50;98.00;;;;;;5012221;28;20974;-63
2023/11/17 08:15:54;;;;;;;6.40;2.43;;;7.50;98.00;;;;;;5011895;28;20494;-62
2023/11/17 08:18:22;;;;;;;3.27;1.97;;;7.60;98.00;;;;;;5011835;28;20450;-62
2023/11/17 08:20:49;;;;;;;4.73;2.50;;;7.50;98.00;;;;;;5012163;28;20457;-62
2023/11/17 08:23:16;;;;;;;4.57;2.50;;;7.40;98.00;;;;;;5012063;28;20466;-62
2023/11/17 08:25:48;;;;;;;5.40;2.30;;;7.40;98.00;;;;;;5011864;28;20452;-62
2023/11/17 08:28:16;;;;;;;6.37;2.50;;;7.30;98.00;;;;;;5011927;28;20536;-62
2023/11/17 08:30:43;;;;;;;5.00;2.60;;;7.20;98.00;;;;;;5011879;28;20453;-63
2023/11/17 08:33:10;;;;;;;3.63;2.37;;;7.20;98.00;;;;;;5011613;28;20492;-63
2023/11/17 08:35:38;;;;;;;5.70;2.87;;;7.20;98.00;;;;;;5011597;28;20951;-63
2023/11/17 08:38:06;;;;;;;3.23;2.20;;;7.20;98.00;;;;;;5011749;28;20821;-63
2023/11/17 08:40:33;;;;;;;3.87;2.27;;;7.20;98.00;;;;;;5010473;28;20496;-62
2023/11/17 08:43:03;;;;;;;4.73;2.30;;;7.40;98.00;;;;;;5011647;28;20450;-62
2023/11/17 08:45:30;;;;;;;4.93;2.57;;;7.40;98.00;;;;;;5011579;28;20502;-62
2023/11/17 08:48:01;;;;;;;4.27;2.63;;;7.40;98.00;;;;;;5011595;28;20459;-63
2023/11/17 08:50:28;;;;;;;7.37;2.90;;;7.40;98.00;;;;;;5011651;28;20528;-63
2023/11/17 08:52:57;;;;;;;5.77;2.63;;;7.50;98.00;;;;;;5011532;28;20483;-63
2023/11/17 08:55:27;;;;;;;4.50;2.70;;;7.70;98.00;;;;;;5011140;28;20990;-63
2023/11/17 08:57:55;;;;;;;4.10;2.70;;;7.70;98.00;;;;;;5011545;28;20471;-62
2023/11/17 09:00:25;;;;;;;4.87;2.90;;;7.60;98.00;;;;;;5011337;28;20479;-63
2023/11/17 09:02:54;;;;;;;4.13;2.50;;;7.60;98.00;;;;;;5010673;28;20495;-62
2023/11/17 09:05:23;;;;;;;4.77;2.73;;;7.60;98.00;;;;;;5011343;28;20674;-62
2023/11/17 09:07:51;;;;;;;5.10;2.50;;;7.60;98.00;;;;;;5011371;28;20462;-63
2023/11/17 09:10:20;;;;;;;4.20;2.77;;;7.60;98.00;;;;;;5011412;28;20964;-63
2023/11/17 09:12:48;;;;;;;5.20;2.67;;;7.60;98.00;;;;;;5011488;28;20839;-63
2023/11/17 09:15:18;;;;;;;4.80;2.90;;;7.60;98.00;;;;;;5011627;28;20458;-62
2023/11/17 09:17:50;;;;;;;5.17;2.90;;;7.60;98.00;;;;;;5010345;28;20507;-63
2023/11/17 09:20:19;;;;;;;4.73;2.80;;;7.70;98.00;;;;;;5013256;28;20869;-63
2023/11/17 09:22:47;;;;;;;4.77;2.43;;;7.70;98.00;;;;;;5203681;22;21964;-63
2023/11/17 09:25:15;;;;;;;5.40;2.83;;;7.80;98.00;;;;;;5015081;28;20970;-62
2023/11/17 09:27:44;;;;;;;5.00;2.60;;;7.60;98.00;;;;;;4994445;28;20937;-62
2023/11/17 09:30:17;;;;;;;6.00;2.43;;;7.60;98.00;;;;;;5002954;28;20556;-63
2023/11/17 09:32:47;;;;;;;5.70;3.20;;;7.50;98.00;;;;;;5015459;28;20480;-62
2023/11/17 09:35:16;;;;;;;4.60;2.70;;;7.40;98.00;;;;;;5015315;28;20622;-63
2023/11/17 09:37:50;;;;;;;7.93;3.17;;;7.50;98.00;;;;;;5015647;28;20978;-63
2023/11/17 09:40:20;;;;;;;4.97;2.80;;;7.50;98.00;;;;;;5014126;28;20490;-63
2023/11/17 09:42:50;;;;;;;5.87;2.60;;;7.50;98.00;;;;;;5015375;28;20568;-63
2023/11/17 09:45:20;;;;;;;5.77;2.60;;;7.50;98.00;;;;;;5015402;28;20957;-63
2023/11/17 09:47:52;;;;;;;6.10;2.80;;;7.50;98.00;;;;;;5015326;28;20918;-62
2023/11/17 09:50:20;;;;;;;4.17;2.70;;;7.40;98.00;;;;;;4997337;28;20503;-63
2023/11/17 09:52:49;;;;;;;8.33;3.07;;;7.30;98.00;;;;;;4995505;28;20516;-63
2023/11/17 09:55:17;;;;;;;4.67;2.60;;;7.30;98.00;;;;;;4995456;28;20935;-63
2023/11/17 09:57:46;;;;;;;4.90;2.30;;;7.40;98.00;;;;;;4995460;28;20543;-63
2023/11/17 10:00:27;;;;;;;5.30;3.00;;;7.50;98.00;;;;;;4995410;28;20528;-63
2023/11/17 10:02:57;;;;;;;5.30;3.00;;;7.70;98.00;;;;;;4995221;28;20551;-63
2023/11/17 10:05:26;;;;;;;5.30;2.83;;;7.70;98.00;;;;;;4994778;28;20992;-63
2023/11/17 10:07:55;;;;;;;5.67;3.10;;;7.70;98.00;;;;;;4993463;28;20465;-62
2023/11/17 10:10:26;;;;;;;6.67;2.97;;;7.70;98.00;;;;;;4994595;28;20965;-62
2023/11/17 10:12:56;;;;;;;7.97;3.23;;;7.60;98.00;;;;;;4994463;28;20467;-62
2023/11/17 10:15:25;;;;;;;6.40;3.00;;;7.70;98.00;;;;;;4995216;28;20465;-63
2023/11/17 10:17:59;;;;;;;6.10;3.10;;;7.80;98.00;;;;;;4995350;28;20544;-63
2023/11/17 10:20:26;;;;;;;5.43;2.60;;;7.80;98.00;;;;;;4994740;28;20917;-63
2023/11/17 10:22:56;;;;;;;4.53;2.70;;;7.70;98.00;;;;;;4994649;28;20470;-62
2023/11/17 10:25:23;;;;;;;5.53;2.97;;;7.70;98.00;;;;;;4994095;28;20801;-63
2023/11/17 10:27:51;;;;;;;7.50;2.77;;;8.00;98.00;;;;;;4993858;28;20466;-63
2023/11/17 10:30:19;;;;;;;4.53;2.60;;;8.10;98.00;;;;;;4994618;28;20571;-63
2023/11/17 10:32:59;;;;;;;5.40;3.20;;;7.90;98.00;;;;;;4993371;28;20550;-62
2023/11/17 10:35:31;;;;;;;5.90;2.57;;;7.90;98.00;;;;;;4994416;28;20463;-62
2023/11/17 10:37:58;;;;;;;6.20;3.10;;;8.00;98.00;;;;;;4994271;28;20466;-62
2023/11/17 10:40:28;;;;;;;4.37;2.50;;;8.10;98.00;;;;;;4993456;28;20500;-63
2023/11/17 10:43:08;;;;;;;7.70;2.90;;;7.90;98.00;;;;;;4994035;28;20524;-63
2023/11/17 10:45:38;;;;;;;4.33;2.60;;;7.90;98.00;;;;;;4993973;28;20467;-63
2023/11/17 10:48:07;;;;;;;5.00;2.87;;;7.80;98.00;;;;;;4994170;28;20555;-63
2023/11/17 10:50:36;;;;;;;5.63;3.13;;;7.70;98.00;;;;;;4994070;28;20443;-62
2023/11/17 10:53:20;;;;;;;5.60;3.00;;;7.70;98.00;;;;;;4992736;28;20937;-63
2023/11/17 10:55:49;;;;;;;5.40;2.87;;;7.70;98.00;;;;;;4994427;28;20455;-63
2023/11/17 10:58:17;;;;;;;7.60;2.90;;;7.90;98.00;;;;;;4994004;28;20969;-62
2023/11/17 11:00:47;;;;;;;3.73;2.43;;;8.00;98.00;;;;;;4993833;28;20899;-63
2023/11/17 11:03:18;;;;;;;3.87;2.40;;;8.00;98.00;;;;;;4994155;28;20946;-63
2023/11/17 11:05:47;;;;;;;4.67;2.40;;;8.00;98.00;;;;;;4993815;28;20454;-63
2023/11/17 11:08:18;;;;;;;3.33;2.40;;;8.10;98.00;;;;;;4993415;28;20892;-63
2023/11/17 11:10:53;;;;;;;4.07;2.40;;;8.10;98.00;;;;;;4993566;28;20458;-63
2023/11/17 11:13:27;;;;;;;5.47;2.77;;;8.20;98.00;;;;;;4993407;28;20459;-63
2023/11/17 11:16:05;;;;;;;3.83;2.57;;;8.00;98.00;;;;;;4993539;28;20848;-63
2023/11/17 11:18:36;;;;;;;6.07;2.70;;;8.00;98.00;;;;;;4993500;28;20485;-63
2023/11/17 11:21:06;;;;;;;5.53;2.70;;;8.00;98.00;;;;;;4993479;28;20494;-63
2023/11/17 11:23:33;;;;;;;4.93;2.77;;;8.10;98.00;;;;;;4992241;28;20475;-62
2023/11/17 11:26:02;;;;;;;3.83;2.70;;;8.00;98.00;;;;;;4993012;28;20470;-62
2023/11/17 11:28:31;;;;;;;5.90;2.60;;;7.90;98.00;;;;;;4993251;28;20465;-62
2023/11/17 11:31:00;;;;;;;5.07;2.93;;;7.90;98.00;;;;;;4992956;28;20555;-63
2023/11/17 11:33:35;;;;;;;4.70;2.40;;;8.00;98.00;;;;;;4993255;28;20542;-63
2023/11/17 11:36:05;;;;;;;6.23;2.77;;;7.80;98.00;;;;;;4993131;28;20471;-63
2023/11/17 11:38:34;;;;;;;4.70;2.60;;;7.80;98.00;;;;;;4993247;28;20635;-63
2023/11/17 11:41:01;;;;;;;4.80;2.47;;;7.70;98.00;;;;;;4992965;28;20628;-63
2023/11/17 11:43:30;;;;;;;4.53;2.40;;;7.70;98.00;;;;;;4992894;28;20829;-63
2023/11/17 11:45:58;;;;;;;3.87;2.37;;;7.80;98.00;;;;;;4992704;28;20467;-63
2023/11/17 11:48:30;;;;;;;2.37;2.13;;;7.70;98.00;;;;;;4992950;28;20453;-63
2023/11/17 11:50:59;;;;;;;5.20;2.40;;;7.60;98.00;;;;;;4992914;28;20453;-63
2023/11/17 11:53:37;;;;;;;3.90;2.20;;;7.60;98.00;;;;;;4993022;28;20820;-63
2023/11/17 11:56:11;;;;;;;4.10;2.37;;;7.60;98.00;;;;;;4992731;28;20538;-63
2023/11/17 11:58:42;;;;;;;4.40;2.27;;;7.60;98.00;;;;;;4992989;28;20452;-63
2023/11/17 12:01:12;;;;;;;2.93;2.00;;;7.60;98.00;;;;;;4992736;28;20580;-63
2023/11/17 12:03:42;;;;;;;4.60;2.17;;;7.60;98.00;;;;;;4992586;28;20570;-63
2023/11/17 12:06:11;;;;;;;3.20;2.20;;;7.60;98.00;;;;;;4992485;28;20465;-63
2023/11/17 12:08:38;;;;;;;4.83;2.50;;;7.80;98.00;;;;;;4992640;28;20455;-63
2023/11/17 12:11:12;;;;;;;4.10;2.27;;;7.80;98.00;;;;;;4991364;28;20658;-63
2023/11/17 12:13:44;;;;;;;5.53;2.40;;;7.70;98.00;;;;;;4992735;28;20465;-63
2023/11/17 12:16:18;;;;;;;3.80;2.10;;;7.70;98.00;;;;;;4992279;28;20453;-63
2023/11/17 12:18:48;;;;;;;3.43;2.17;;;7.80;98.00;;;;;;4992264;28;20510;-63
2023/11/17 12:21:38;;;;;;;4.30;2.33;;;7.70;98.00;;;;;;4992214;28;20508;-64
2023/11/17 12:24:07;;;;;;;4.63;2.50;;;7.70;98.00;;;;;;4991873;28;20564;-63
2023/11/17 12:26:35;;;;;;;4.53;2.40;;;7.70;98.00;;;;;;4992040;28;20496;-63
2023/11/17 12:29:03;;;;;;;3.53;2.30;;;7.80;98.00;;;;;;4992269;28;20454;-63
2023/11/17 12:31:30;;;;;;;5.70;2.63;;;7.80;98.00;;;;;;4992029;28;21013;-63
2023/11/17 12:34:00;;;;;;;11.63;2.30;;;7.90;98.00;;;;;;4992559;28;20552;-62
2023/11/17 12:36:27;;;;;;;4.40;2.67;;;7.90;98.00;;;;;;4992275;28;20526;-63
2023/11/17 12:38:56;;;;;;;3.53;2.20;;;8.00;98.00;;;;;;4992442;28;20459;-63
2023/11/17 12:41:25;;;;;;;6.10;2.40;;;8.10;98.00;;;;;;4991936;28;20492;-63
2023/11/17 12:43:55;;;;;;;5.20;2.40;;;8.20;98.00;;;;;;4992060;28;20458;-63
2023/11/17 12:46:25;;;;;;;3.93;2.17;;;8.20;98.00;;;;;;4991875;28;20465;-63
2023/11/17 12:48:52;;;;;;;3.50;2.13;;;8.20;98.00;;;;;;5006276;28;20593;-63
2023/11/17 12:51:26;;;;;;;3.63;2.17;;;8.10;98.00;;;;;;5011331;28;20519;-63
2023/11/17 12:53:56;;;;;;;3.70;2.33;;;8.00;98.00;;;;;;5011317;28;20829;-63
2023/11/17 12:56:25;;;;;;;3.37;2.13;;;8.00;98.00;;;;;;5011365;28;20460;-64
2023/11/17 12:58:54;;;;;;;6.47;2.30;;;8.00;98.00;;;;;;5011435;28;20457;-63
2023/11/17 13:01:24;;;;;;;5.47;2.43;;;8.00;98.00;;;;;;5011112;28;20487;-63
2023/11/17 13:03:53;;;;;;;4.83;2.10;;;8.00;98.00;;;;;;5011637;28;20469;-63
2023/11/17 13:06:23;;;;;;;2.43;1.73;;;8.10;98.00;;;;;;5011323;28;20768;-63
2023/11/17 13:08:52;;;;;;;7.47;2.20;;;8.10;98.00;;;;;;5011498;28;20940;-63